sensor_id;sensor_type;location;lat;lon;timestamp;P1;durP1;ratioP1;P2;durP2;ratioP2
12603;SDS011;6367;52.508;13.284;2023-09-19T00:00:04;3.80;;;2.33;;
12603;SDS011;6367;52.508;13.284;2023-09-19T00:02:32;2.70;;;2.20;;
12603;SDS011;6367;52.508;13.284;2023-09-19T00:04:58;2.77;;;1.97;;
12603;SDS011;6367;52.508;13.284;2023-09-19T00:07:23;3.20;;;2.17;;
12603;SDS011;6367;52.508;13.284;2023-09-19T00:09:49;4.67;;;2.00;;
12603;SDS011;6367;52.508;13.284;2023-09-19T00:12:15;6.33;;;2.40;;
12603;SDS011;6367;52.508;13.284;2023-09-19T00:14:40;5.90;;;2.40;;
12603;SDS011;6367;52.508;13.284;2023-09-19T00:17:06;3.70;;;2.77;;
12603;SDS011;6367;52.508;13.284;2023-09-19T00:19:32;2.90;;;1.93;;
12603;SDS011;6367;52.508;13.284;2023-09-19T00:21:58;2.43;;;2.23;;
12603;SDS011;6367;52.508;13.284;2023-09-19T00:24:23;2.07;;;1.87;;
12603;SDS011;6367;52.508;13.284;2023-09-19T00:26:49;5.40;;;2.33;;
12603;SDS011;6367;52.508;13.284;2023-09-19T00:29:15;5.10;;;2.17;;
12603;SDS011;6367;52.508;13.284;2023-09-19T00:31:44;2.30;;;2.10;;
12603;SDS011;6367;52.508;13.284;2023-09-19T00:34:10;3.80;;;2.43;;
12603;SDS011;6367;52.508;13.284;2023-09-19T00:36:39;3.00;;;2.23;;
12603;SDS011;6367;52.508;13.284;2023-09-19T00:39:05;3.40;;;2.30;;
12603;SDS011;6367;52.508;13.284;2023-09-19T00:41:31;2.53;;;2.33;;
12603;SDS011;6367;52.508;13.284;2023-09-19T00:43:57;3.00;;;2.70;;
12603;SDS011;6367;52.508;13.284;2023-09-19T00:46:25;3.93;;;2.13;;
12603;SDS011;6367;52.508;13.284;2023-09-19T00:48:50;2.97;;;2.57;;
12603;SDS011;6367;52.508;13.284;2023-09-19T00:51:16;5.70;;;2.40;;
12603;SDS011;6367;52.508;13.284;2023-09-19T00:53:47;4.67;;;2.30;;
12603;SDS011;6367;52.508;13.284;2023-09-19T00:56:14;2.57;;;2.37;;
12603;SDS011;6367;52.508;13.284;2023-09-19T00:58:43;3.63;;;2.20;;
12603;SDS011;6367;52.508;13.284;2023-09-19T01:01:09;3.40;;;2.47;;
12603;SDS011;6367;52.508;13.284;2023-09-19T01:03:37;5.10;;;2.33;;
12603;SDS011;6367;52.508;13.284;2023-09-19T01:06:03;3.30;;;2.13;;
12603;SDS011;6367;52.508;13.284;2023-09-19T01:08:28;5.10;;;2.63;;
12603;SDS011;6367;52.508;13.284;2023-09-19T01:11:04;2.23;;;2.03;;
12603;SDS011;6367;52.508;13.284;2023-09-19T01:16:19;2.47;;;1.80;;
12603;SDS011;6367;52.508;13.284;2023-09-19T01:22:02;2.70;;;1.97;;
12603;SDS011;6367;52.508;13.284;2023-09-19T01:30:32;3.63;;;2.30;;
12603;SDS011;6367;52.508;13.284;2023-09-19T01:33:02;2.30;;;2.10;;
12603;SDS011;6367;52.508;13.284;2023-09-19T01:35:31;5.60;;;2.93;;
12603;SDS011;6367;52.508;13.284;2023-09-19T01:37:57;2.43;;;1.93;;
12603;SDS011;6367;52.508;13.284;2023-09-19T01:40:24;3.43;;;2.43;;
12603;SDS011;6367;52.508;13.284;2023-09-19T01:45:33;2.83;;;2.50;;
12603;SDS011;6367;52.508;13.284;2023-09-19T01:51:00;2.63;;;2.40;;
12603;SDS011;6367;52.508;13.284;2023-09-19T01:54:16;2.73;;;2.30;;
12603;SDS011;6367;52.508;13.284;2023-09-19T01:56:31;2.17;;;2.00;;
12603;SDS011;6367;52.508;13.284;2023-09-19T01:59:04;2.90;;;2.00;;
12603;SDS011;6367;52.508;13.284;2023-09-19T02:01:34;4.53;;;2.27;;
12603;SDS011;6367;52.508;13.284;2023-09-19T02:04:02;2.50;;;1.97;;
12603;SDS011;6367;52.508;13.284;2023-09-19T02:06:28;3.63;;;2.53;;
12603;SDS011;6367;52.508;13.284;2023-09-19T02:08:54;2.63;;;2.43;;
12603;SDS011;6367;52.508;13.284;2023-09-19T02:11:20;2.97;;;1.97;;
12603;SDS011;6367;52.508;13.284;2023-09-19T02:13:46;3.67;;;2.20;;
12603;SDS011;6367;52.508;13.284;2023-09-19T02:16:12;2.30;;;2.10;;
12603;SDS011;6367;52.508;13.284;2023-09-19T02:18:37;2.20;;;2.00;;
12603;SDS011;6367;52.508;13.284;2023-09-19T02:21:04;2.60;;;2.20;;
12603;SDS011;6367;52.508;13.284;2023-09-19T02:23:32;2.47;;;1.93;;
12603;SDS011;6367;52.508;13.284;2023-09-19T02:25:58;4.20;;;2.07;;
12603;SDS011;6367;52.508;13.284;2023-09-19T02:28:28;2.20;;;1.90;;
12603;SDS011;6367;52.508;13.284;2023-09-19T02:31:00;3.00;;;1.80;;
12603;SDS011;6367;52.508;13.284;2023-09-19T02:33:26;2.30;;;2.10;;
12603;SDS011;6367;52.508;13.284;2023-09-19T02:35:56;2.50;;;2.10;;
12603;SDS011;6367;52.508;13.284;2023-09-19T02:38:25;4.67;;;2.37;;
12603;SDS011;6367;52.508;13.284;2023-09-19T02:40:52;2.50;;;2.30;;
12603;SDS011;6367;52.508;13.284;2023-09-19T02:43:18;2.70;;;1.93;;
12603;SDS011;6367;52.508;13.284;2023-09-19T02:45:47;2.47;;;2.27;;
12603;SDS011;6367;52.508;13.284;2023-09-19T02:48:15;2.13;;;1.93;;
12603;SDS011;6367;52.508;13.284;2023-09-19T02:50:50;2.90;;;2.13;;
12603;SDS011;6367;52.508;13.284;2023-09-19T02:53:16;2.57;;;1.90;;
12603;SDS011;6367;52.508;13.284;2023-09-19T02:55:41;3.07;;;2.07;;
12603;SDS011;6367;52.508;13.284;2023-09-19T02:58:08;3.23;;;2.20;;
12603;SDS011;6367;52.508;13.284;2023-09-19T03:00:36;3.50;;;2.23;;
12603;SDS011;6367;52.508;13.284;2023-09-19T03:03:02;2.50;;;1.93;;
12603;SDS011;6367;52.508;13.284;2023-09-19T03:05:29;3.30;;;1.93;;
12603;SDS011;6367;52.508;13.284;2023-09-19T03:07:57;1.90;;;1.80;;
12603;SDS011;6367;52.508;13.284;2023-09-19T03:10:25;2.23;;;2.03;;
12603;SDS011;6367;52.508;13.284;2023-09-19T03:12:53;3.83;;;2.40;;
12603;SDS011;6367;52.508;13.284;2023-09-19T03:15:18;3.47;;;2.20;;
12603;SDS011;6367;52.508;13.284;2023-09-19T03:17:44;2.20;;;1.90;;
12603;SDS011;6367;52.508;13.284;2023-09-19T03:20:11;2.00;;;1.90;;
12603;SDS011;6367;52.508;13.284;2023-09-19T03:22:38;2.90;;;1.80;;
12603;SDS011;6367;52.508;13.284;2023-09-19T03:25:05;1.67;;;1.50;;
12603;SDS011;6367;52.508;13.284;2023-09-19T03:27:35;3.77;;;2.00;;
12603;SDS011;6367;52.508;13.284;2023-09-19T03:30:02;1.87;;;1.70;;
12603;SDS011;6367;52.508;13.284;2023-09-19T03:32:32;2.30;;;1.60;;
12603;SDS011;6367;52.508;13.284;2023-09-19T03:34:59;2.60;;;1.47;;
12603;SDS011;6367;52.508;13.284;2023-09-19T03:37:25;1.80;;;1.47;;
12603;SDS011;6367;52.508;13.284;2023-09-19T03:39:51;1.50;;;1.40;;
12603;SDS011;6367;52.508;13.284;2023-09-19T03:42:17;3.23;;;1.80;;
12603;SDS011;6367;52.508;13.284;2023-09-19T03:44:42;1.93;;;1.73;;
12603;SDS011;6367;52.508;13.284;2023-09-19T03:47:08;1.87;;;1.70;;
12603;SDS011;6367;52.508;13.284;2023-09-19T03:49:33;1.50;;;1.40;;
12603;SDS011;6367;52.508;13.284;2023-09-19T03:51:59;1.43;;;1.33;;
12603;SDS011;6367;52.508;13.284;2023-09-19T03:54:25;1.70;;;1.60;;
12603;SDS011;6367;52.508;13.284;2023-09-19T03:56:50;1.57;;;1.47;;
12603;SDS011;6367;52.508;13.284;2023-09-19T03:59:16;2.00;;;1.67;;
12603;SDS011;6367;52.508;13.284;2023-09-19T04:01:43;1.90;;;1.50;;
12603;SDS011;6367;52.508;13.284;2023-09-19T04:04:08;1.43;;;1.33;;
12603;SDS011;6367;52.508;13.284;2023-09-19T04:06:34;1.40;;;1.20;;
12603;SDS011;6367;52.508;13.284;2023-09-19T04:09:00;1.53;;;1.37;;
12603;SDS011;6367;52.508;13.284;2023-09-19T04:11:29;2.03;;;1.50;;
12603;SDS011;6367;52.508;13.284;2023-09-19T04:13:56;1.40;;;1.30;;
12603;SDS011;6367;52.508;13.284;2023-09-19T04:16:22;2.90;;;1.60;;
12603;SDS011;6367;52.508;13.284;2023-09-19T04:18:48;1.90;;;1.50;;
12603;SDS011;6367;52.508;13.284;2023-09-19T04:21:13;1.77;;;1.67;;
12603;SDS011;6367;52.508;13.284;2023-09-19T04:23:39;1.50;;;1.30;;
12603;SDS011;6367;52.508;13.284;2023-09-19T04:26:05;8.37;;;1.80;;
12603;SDS011;6367;52.508;13.284;2023-09-19T04:28:31;2.10;;;1.30;;
12603;SDS011;6367;52.508;13.284;2023-09-19T04:30:59;2.53;;;1.40;;
12603;SDS011;6367;52.508;13.284;2023-09-19T04:33:25;2.53;;;1.47;;
12603;SDS011;6367;52.508;13.284;2023-09-19T04:35:54;1.87;;;1.60;;
12603;SDS011;6367;52.508;13.284;2023-09-19T04:38:20;1.53;;;1.30;;
12603;SDS011;6367;52.508;13.284;2023-09-19T04:40:46;1.50;;;1.40;;
12603;SDS011;6367;52.508;13.284;2023-09-19T04:43:12;2.13;;;1.90;;
12603;SDS011;6367;52.508;13.284;2023-09-19T04:45:39;2.73;;;1.50;;
12603;SDS011;6367;52.508;13.284;2023-09-19T04:48:07;3.43;;;1.60;;
12603;SDS011;6367;52.508;13.284;2023-09-19T04:50:36;1.37;;;1.27;;
12603;SDS011;6367;52.508;13.284;2023-09-19T04:53:02;2.50;;;1.60;;
12603;SDS011;6367;52.508;13.284;2023-09-19T04:55:28;1.30;;;1.20;;
12603;SDS011;6367;52.508;13.284;2023-09-19T04:57:55;1.50;;;1.20;;
12603;SDS011;6367;52.508;13.284;2023-09-19T05:00:21;2.30;;;1.40;;
12603;SDS011;6367;52.508;13.284;2023-09-19T05:02:54;2.20;;;1.47;;
12603;SDS011;6367;52.508;13.284;2023-09-19T05:05:23;2.67;;;1.60;;
12603;SDS011;6367;52.508;13.284;2023-09-19T05:07:51;1.83;;;1.50;;
12603;SDS011;6367;52.508;13.284;2023-09-19T05:10:19;1.70;;;1.57;;
12603;SDS011;6367;52.508;13.284;2023-09-19T05:12:45;1.57;;;1.40;;
12603;SDS011;6367;52.508;13.284;2023-09-19T05:15:13;3.60;;;1.90;;
12603;SDS011;6367;52.508;13.284;2023-09-19T05:17:40;2.23;;;2.03;;
12603;SDS011;6367;52.508;13.284;2023-09-19T05:20:06;1.90;;;1.80;;
12603;SDS011;6367;52.508;13.284;2023-09-19T05:22:49;2.40;;;2.00;;
12603;SDS011;6367;52.508;13.284;2023-09-19T05:25:38;2.40;;;1.50;;
12603;SDS011;6367;52.508;13.284;2023-09-19T05:28:05;1.93;;;1.63;;
12603;SDS011;6367;52.508;13.284;2023-09-19T05:30:32;2.00;;;1.57;;
12603;SDS011;6367;52.508;13.284;2023-09-19T05:33:01;2.03;;;1.93;;
12603;SDS011;6367;52.508;13.284;2023-09-19T05:35:30;1.83;;;1.73;;
12603;SDS011;6367;52.508;13.284;2023-09-19T05:37:56;3.77;;;1.80;;
12603;SDS011;6367;52.508;13.284;2023-09-19T05:40:23;5.50;;;2.43;;
12603;SDS011;6367;52.508;13.284;2023-09-19T05:42:49;2.70;;;2.00;;
12603;SDS011;6367;52.508;13.284;2023-09-19T05:45:16;5.87;;;2.20;;
12603;SDS011;6367;52.508;13.284;2023-09-19T05:47:47;2.90;;;2.33;;
12603;SDS011;6367;52.508;13.284;2023-09-19T05:50:15;2.67;;;1.90;;
12603;SDS011;6367;52.508;13.284;2023-09-19T05:52:41;3.10;;;1.77;;
12603;SDS011;6367;52.508;13.284;2023-09-19T05:55:08;1.80;;;1.70;;
12603;SDS011;6367;52.508;13.284;2023-09-19T05:57:37;2.30;;;2.00;;
12603;SDS011;6367;52.508;13.284;2023-09-19T06:00:07;3.50;;;1.80;;
12603;SDS011;6367;52.508;13.284;2023-09-19T06:02:36;2.30;;;1.80;;
12603;SDS011;6367;52.508;13.284;2023-09-19T06:05:03;4.10;;;1.70;;
12603;SDS011;6367;52.508;13.284;2023-09-19T06:07:36;3.30;;;2.13;;
12603;SDS011;6367;52.508;13.284;2023-09-19T06:10:05;2.93;;;1.87;;
12603;SDS011;6367;52.508;13.284;2023-09-19T06:12:38;2.43;;;1.90;;
12603;SDS011;6367;52.508;13.284;2023-09-19T06:15:04;2.00;;;1.87;;
12603;SDS011;6367;52.508;13.284;2023-09-19T06:17:33;2.90;;;1.90;;
12603;SDS011;6367;52.508;13.284;2023-09-19T06:20:02;1.90;;;1.67;;
12603;SDS011;6367;52.508;13.284;2023-09-19T06:22:37;2.03;;;1.87;;
12603;SDS011;6367;52.508;13.284;2023-09-19T06:25:03;3.00;;;2.47;;
12603;SDS011;6367;52.508;13.284;2023-09-19T06:27:29;4.77;;;3.17;;
12603;SDS011;6367;52.508;13.284;2023-09-19T06:29:55;4.00;;;2.60;;
12603;SDS011;6367;52.508;13.284;2023-09-19T06:32:26;7.07;;;3.17;;
12603;SDS011;6367;52.508;13.284;2023-09-19T06:34:52;2.67;;;2.00;;
12603;SDS011;6367;52.508;13.284;2023-09-19T06:37:23;3.27;;;2.20;;
12603;SDS011;6367;52.508;13.284;2023-09-19T06:39:49;2.63;;;2.07;;
12603;SDS011;6367;52.508;13.284;2023-09-19T06:42:15;2.37;;;1.90;;
12603;SDS011;6367;52.508;13.284;2023-09-19T06:44:42;2.33;;;1.97;;
12603;SDS011;6367;52.508;13.284;2023-09-19T06:47:08;2.27;;;1.93;;
12603;SDS011;6367;52.508;13.284;2023-09-19T06:49:35;4.10;;;2.33;;
12603;SDS011;6367;52.508;13.284;2023-09-19T06:52:01;2.40;;;2.20;;
12603;SDS011;6367;52.508;13.284;2023-09-19T06:54:27;2.07;;;1.87;;
12603;SDS011;6367;52.508;13.284;2023-09-19T06:56:59;2.97;;;1.80;;
12603;SDS011;6367;52.508;13.284;2023-09-19T06:59:25;4.07;;;2.30;;
12603;SDS011;6367;52.508;13.284;2023-09-19T07:01:50;7.93;;;1.90;;
12603;SDS011;6367;52.508;13.284;2023-09-19T07:04:16;5.00;;;1.97;;
12603;SDS011;6367;52.508;13.284;2023-09-19T07:06:44;7.00;;;2.20;;
12603;SDS011;6367;52.508;13.284;2023-09-19T07:09:14;2.90;;;1.80;;
12603;SDS011;6367;52.508;13.284;2023-09-19T07:11:40;2.80;;;1.93;;
12603;SDS011;6367;52.508;13.284;2023-09-19T07:14:07;2.47;;;1.90;;
12603;SDS011;6367;52.508;13.284;2023-09-19T07:16:33;2.20;;;2.00;;
12603;SDS011;6367;52.508;13.284;2023-09-19T07:18:58;3.20;;;2.00;;
12603;SDS011;6367;52.508;13.284;2023-09-19T07:21:24;3.13;;;2.13;;
12603;SDS011;6367;52.508;13.284;2023-09-19T07:23:50;3.40;;;2.20;;
12603;SDS011;6367;52.508;13.284;2023-09-19T07:26:16;3.77;;;2.23;;
12603;SDS011;6367;52.508;13.284;2023-09-19T07:28:42;3.47;;;2.40;;
12603;SDS011;6367;52.508;13.284;2023-09-19T07:31:07;4.37;;;2.60;;
12603;SDS011;6367;52.508;13.284;2023-09-19T07:33:35;2.70;;;2.40;;
12603;SDS011;6367;52.508;13.284;2023-09-19T07:36:01;2.93;;;2.63;;
12603;SDS011;6367;52.508;13.284;2023-09-19T07:38:27;2.47;;;2.27;;
12603;SDS011;6367;52.508;13.284;2023-09-19T07:40:53;4.53;;;3.00;;
12603;SDS011;6367;52.508;13.284;2023-09-19T07:43:24;4.83;;;2.87;;
12603;SDS011;6367;52.508;13.284;2023-09-19T07:45:50;4.23;;;2.43;;
12603;SDS011;6367;52.508;13.284;2023-09-19T07:48:15;4.40;;;3.10;;
12603;SDS011;6367;52.508;13.284;2023-09-19T07:50:41;2.40;;;2.20;;
12603;SDS011;6367;52.508;13.284;2023-09-19T07:53:08;5.77;;;2.90;;
12603;SDS011;6367;52.508;13.284;2023-09-19T07:55:34;6.50;;;2.83;;
12603;SDS011;6367;52.508;13.284;2023-09-19T07:57:59;4.07;;;2.30;;
12603;SDS011;6367;52.508;13.284;2023-09-19T08:00:25;4.20;;;2.77;;
12603;SDS011;6367;52.508;13.284;2023-09-19T08:02:51;7.00;;;3.43;;
12603;SDS011;6367;52.508;13.284;2023-09-19T08:05:17;4.03;;;2.60;;
12603;SDS011;6367;52.508;13.284;2023-09-19T08:07:44;3.90;;;2.83;;
12603;SDS011;6367;52.508;13.284;2023-09-19T08:10:13;2.90;;;2.00;;
12603;SDS011;6367;52.508;13.284;2023-09-19T08:12:41;2.73;;;2.40;;
12603;SDS011;6367;52.508;13.284;2023-09-19T08:15:20;3.13;;;2.50;;
12603;SDS011;6367;52.508;13.284;2023-09-19T08:17:45;3.23;;;2.27;;
12603;SDS011;6367;52.508;13.284;2023-09-19T08:20:12;4.47;;;2.27;;
12603;SDS011;6367;52.508;13.284;2023-09-19T08:22:47;5.00;;;2.50;;
12603;SDS011;6367;52.508;13.284;2023-09-19T08:25:17;4.30;;;2.90;;
12603;SDS011;6367;52.508;13.284;2023-09-19T08:27:44;4.07;;;2.57;;
12603;SDS011;6367;52.508;13.284;2023-09-19T08:30:16;5.70;;;2.27;;
12603;SDS011;6367;52.508;13.284;2023-09-19T08:32:45;6.07;;;2.80;;
12603;SDS011;6367;52.508;13.284;2023-09-19T08:35:13;4.77;;;2.83;;
12603;SDS011;6367;52.508;13.284;2023-09-19T08:37:39;4.40;;;2.97;;
12603;SDS011;6367;52.508;13.284;2023-09-19T08:40:05;2.97;;;2.37;;
12603;SDS011;6367;52.508;13.284;2023-09-19T08:42:47;6.90;;;2.60;;
12603;SDS011;6367;52.508;13.284;2023-09-19T08:45:14;5.40;;;2.80;;
12603;SDS011;6367;52.508;13.284;2023-09-19T08:47:43;3.40;;;2.50;;
12603;SDS011;6367;52.508;13.284;2023-09-19T08:50:19;4.80;;;2.70;;
12603;SDS011;6367;52.508;13.284;2023-09-19T08:52:51;4.80;;;2.73;;
12603;SDS011;6367;52.508;13.284;2023-09-19T08:55:19;3.53;;;2.60;;
12603;SDS011;6367;52.508;13.284;2023-09-19T08:57:59;4.80;;;3.03;;
12603;SDS011;6367;52.508;13.284;2023-09-19T09:00:27;7.80;;;3.13;;
12603;SDS011;6367;52.508;13.284;2023-09-19T09:02:54;3.00;;;2.50;;
12603;SDS011;6367;52.508;13.284;2023-09-19T09:05:21;5.13;;;2.97;;
12603;SDS011;6367;52.508;13.284;2023-09-19T09:07:51;4.73;;;2.47;;
12603;SDS011;6367;52.508;13.284;2023-09-19T09:10:21;3.40;;;2.87;;
12603;SDS011;6367;52.508;13.284;2023-09-19T09:12:48;4.00;;;2.60;;
12603;SDS011;6367;52.508;13.284;2023-09-19T09:15:19;4.43;;;2.90;;
12603;SDS011;6367;52.508;13.284;2023-09-19T09:17:47;4.53;;;2.70;;
12603;SDS011;6367;52.508;13.284;2023-09-19T09:20:17;3.53;;;2.83;;
12603;SDS011;6367;52.508;13.284;2023-09-19T09:22:56;4.83;;;2.87;;
12603;SDS011;6367;52.508;13.284;2023-09-19T09:25:49;4.00;;;2.83;;
12603;SDS011;6367;52.508;13.284;2023-09-19T09:28:20;3.83;;;2.70;;
12603;SDS011;6367;52.508;13.284;2023-09-19T09:30:47;5.80;;;3.60;;
12603;SDS011;6367;52.508;13.284;2023-09-19T09:33:13;5.80;;;3.00;;
12603;SDS011;6367;52.508;13.284;2023-09-19T09:35:56;6.10;;;3.30;;
12603;SDS011;6367;52.508;13.284;2023-09-19T09:38:26;4.43;;;3.10;;
12603;SDS011;6367;52.508;13.284;2023-09-19T09:40:57;2.70;;;2.50;;
12603;SDS011;6367;52.508;13.284;2023-09-19T09:43:35;5.17;;;3.50;;
12603;SDS011;6367;52.508;13.284;2023-09-19T09:48:47;4.00;;;2.90;;
12603;SDS011;6367;52.508;13.284;2023-09-19T09:51:33;5.00;;;3.20;;
12603;SDS011;6367;52.508;13.284;2023-09-19T09:54:12;6.53;;;3.40;;
12603;SDS011;6367;52.508;13.284;2023-09-19T09:56:55;3.83;;;2.63;;
12603;SDS011;6367;52.508;13.284;2023-09-19T10:02:11;3.70;;;2.83;;
12603;SDS011;6367;52.508;13.284;2023-09-19T10:04:38;4.23;;;3.00;;
12603;SDS011;6367;52.508;13.284;2023-09-19T10:07:29;6.40;;;3.20;;
12603;SDS011;6367;52.508;13.284;2023-09-19T10:10:32;4.90;;;3.13;;
12603;SDS011;6367;52.508;13.284;2023-09-19T10:13:08;4.67;;;2.43;;
12603;SDS011;6367;52.508;13.284;2023-09-19T10:15:40;4.60;;;3.40;;
12603;SDS011;6367;52.508;13.284;2023-09-19T10:18:13;5.37;;;2.70;;
12603;SDS011;6367;52.508;13.284;2023-09-19T10:20:44;9.80;;;2.80;;
12603;SDS011;6367;52.508;13.284;2023-09-19T10:23:11;3.73;;;2.70;;
12603;SDS011;6367;52.508;13.284;2023-09-19T10:25:41;6.27;;;2.73;;
12603;SDS011;6367;52.508;13.284;2023-09-19T10:28:12;5.17;;;3.00;;
12603;SDS011;6367;52.508;13.284;2023-09-19T10:30:42;7.03;;;3.00;;
12603;SDS011;6367;52.508;13.284;2023-09-19T10:33:10;5.23;;;2.77;;
12603;SDS011;6367;52.508;13.284;2023-09-19T10:35:38;3.83;;;2.70;;
12603;SDS011;6367;52.508;13.284;2023-09-19T10:38:09;7.00;;;3.07;;
12603;SDS011;6367;52.508;13.284;2023-09-19T10:40:36;4.53;;;3.20;;
12603;SDS011;6367;52.508;13.284;2023-09-19T10:43:07;6.47;;;2.90;;
12603;SDS011;6367;52.508;13.284;2023-09-19T10:45:46;4.13;;;2.97;;
12603;SDS011;6367;52.508;13.284;2023-09-19T10:48:14;5.00;;;2.80;;
12603;SDS011;6367;52.508;13.284;2023-09-19T10:50:51;5.10;;;2.80;;
12603;SDS011;6367;52.508;13.284;2023-09-19T10:53:24;4.73;;;2.50;;
12603;SDS011;6367;52.508;13.284;2023-09-19T10:55:59;6.10;;;3.00;;
12603;SDS011;6367;52.508;13.284;2023-09-19T10:58:28;3.63;;;2.73;;
12603;SDS011;6367;52.508;13.284;2023-09-19T11:01:00;5.27;;;2.87;;
12603;SDS011;6367;52.508;13.284;2023-09-19T11:03:37;3.23;;;2.50;;
12603;SDS011;6367;52.508;13.284;2023-09-19T11:06:17;4.63;;;2.80;;
12603;SDS011;6367;52.508;13.284;2023-09-19T11:11:48;6.83;;;3.20;;
12603;SDS011;6367;52.508;13.284;2023-09-19T11:30:51;3.60;;;2.40;;
12603;SDS011;6367;52.508;13.284;2023-09-19T11:33:32;5.30;;;2.50;;
12603;SDS011;6367;52.508;13.284;2023-09-19T11:43:53;3.50;;;2.27;;
12603;SDS011;6367;52.508;13.284;2023-09-19T11:49:17;5.93;;;2.17;;
12603;SDS011;6367;52.508;13.284;2023-09-19T11:51:50;4.50;;;2.60;;
12603;SDS011;6367;52.508;13.284;2023-09-19T11:54:19;4.70;;;2.33;;
12603;SDS011;6367;52.508;13.284;2023-09-19T11:56:53;8.20;;;2.60;;
12603;SDS011;6367;52.508;13.284;2023-09-19T11:59:22;5.13;;;2.07;;
12603;SDS011;6367;52.508;13.284;2023-09-19T12:01:57;3.30;;;1.90;;
12603;SDS011;6367;52.508;13.284;2023-09-19T12:04:40;5.57;;;2.90;;
12603;SDS011;6367;52.508;13.284;2023-09-19T12:07:09;3.73;;;2.13;;
12603;SDS011;6367;52.508;13.284;2023-09-19T12:09:41;7.93;;;2.73;;
12603;SDS011;6367;52.508;13.284;2023-09-19T12:12:18;4.63;;;1.97;;
12603;SDS011;6367;52.508;13.284;2023-09-19T12:14:50;4.60;;;2.40;;
12603;SDS011;6367;52.508;13.284;2023-09-19T12:17:17;3.50;;;2.23;;
12603;SDS011;6367;52.508;13.284;2023-09-19T12:19:52;3.47;;;2.33;;
12603;SDS011;6367;52.508;13.284;2023-09-19T12:22:19;4.10;;;2.70;;
12603;SDS011;6367;52.508;13.284;2023-09-19T12:24:48;3.43;;;2.03;;
12603;SDS011;6367;52.508;13.284;2023-09-19T12:27:15;2.67;;;1.80;;
12603;SDS011;6367;52.508;13.284;2023-09-19T12:29:45;2.50;;;1.47;;
12603;SDS011;6367;52.508;13.284;2023-09-19T12:32:13;6.07;;;2.00;;
12603;SDS011;6367;52.508;13.284;2023-09-19T12:34:42;3.23;;;1.93;;
12603;SDS011;6367;52.508;13.284;2023-09-19T12:37:15;3.17;;;2.07;;
12603;SDS011;6367;52.508;13.284;2023-09-19T12:39:46;6.13;;;2.00;;
12603;SDS011;6367;52.508;13.284;2023-09-19T12:42:16;3.37;;;1.70;;
12603;SDS011;6367;52.508;13.284;2023-09-19T12:44:45;2.50;;;1.93;;
12603;SDS011;6367;52.508;13.284;2023-09-19T12:47:13;2.77;;;1.70;;
12603;SDS011;6367;52.508;13.284;2023-09-19T12:52:36;3.80;;;1.87;;
12603;SDS011;6367;52.508;13.284;2023-09-19T12:55:03;4.87;;;1.90;;
12603;SDS011;6367;52.508;13.284;2023-09-19T12:57:34;3.93;;;2.03;;
12603;SDS011;6367;52.508;13.284;2023-09-19T13:00:02;3.73;;;1.73;;
12603;SDS011;6367;52.508;13.284;2023-09-19T13:02:31;2.73;;;1.87;;
12603;SDS011;6367;52.508;13.284;2023-09-19T13:04:57;6.70;;;2.50;;
12603;SDS011;6367;52.508;13.284;2023-09-19T13:07:43;2.93;;;2.03;;
12603;SDS011;6367;52.508;13.284;2023-09-19T13:10:14;3.87;;;1.77;;
12603;SDS011;6367;52.508;13.284;2023-09-19T13:12:41;2.90;;;1.90;;
12603;SDS011;6367;52.508;13.284;2023-09-19T13:15:12;5.57;;;2.43;;
12603;SDS011;6367;52.508;13.284;2023-09-19T13:17:44;3.23;;;2.00;;
12603;SDS011;6367;52.508;13.284;2023-09-19T13:20:26;3.27;;;1.80;;
12603;SDS011;6367;52.508;13.284;2023-09-19T13:22:53;3.50;;;2.00;;
12603;SDS011;6367;52.508;13.284;2023-09-19T13:25:24;3.37;;;1.83;;
12603;SDS011;6367;52.508;13.284;2023-09-19T13:27:56;3.23;;;1.97;;
12603;SDS011;6367;52.508;13.284;2023-09-19T13:30:23;2.20;;;1.70;;
12603;SDS011;6367;52.508;13.284;2023-09-19T13:32:50;1.60;;;1.50;;
12603;SDS011;6367;52.508;13.284;2023-09-19T13:35:17;3.90;;;1.70;;
12603;SDS011;6367;52.508;13.284;2023-09-19T13:37:43;2.83;;;1.70;;
12603;SDS011;6367;52.508;13.284;2023-09-19T13:40:16;3.37;;;1.77;;
12603;SDS011;6367;52.508;13.284;2023-09-19T13:42:42;2.53;;;2.00;;
12603;SDS011;6367;52.508;13.284;2023-09-19T13:45:08;3.33;;;1.70;;
12603;SDS011;6367;52.508;13.284;2023-09-19T13:47:37;2.33;;;1.87;;
12603;SDS011;6367;52.508;13.284;2023-09-19T13:50:05;4.13;;;2.27;;
12603;SDS011;6367;52.508;13.284;2023-09-19T13:52:32;5.23;;;1.77;;
12603;SDS011;6367;52.508;13.284;2023-09-19T13:54:58;4.03;;;2.20;;
12603;SDS011;6367;52.508;13.284;2023-09-19T13:57:25;6.10;;;2.10;;
12603;SDS011;6367;52.508;13.284;2023-09-19T13:59:51;3.27;;;2.23;;
12603;SDS011;6367;52.508;13.284;2023-09-19T14:02:19;3.60;;;2.60;;
12603;SDS011;6367;52.508;13.284;2023-09-19T14:04:44;2.57;;;2.03;;
12603;SDS011;6367;52.508;13.284;2023-09-19T14:07:10;2.77;;;1.97;;
12603;SDS011;6367;52.508;13.284;2023-09-19T14:09:40;4.30;;;2.30;;
12603;SDS011;6367;52.508;13.284;2023-09-19T14:12:06;3.40;;;1.93;;
12603;SDS011;6367;52.508;13.284;2023-09-19T14:14:32;1.97;;;1.60;;
12603;SDS011;6367;52.508;13.284;2023-09-19T14:16:58;5.13;;;2.00;;
12603;SDS011;6367;52.508;13.284;2023-09-19T14:19:26;2.27;;;1.93;;
12603;SDS011;6367;52.508;13.284;2023-09-19T14:21:52;1.77;;;1.63;;
12603;SDS011;6367;52.508;13.284;2023-09-19T14:24:20;3.20;;;1.73;;
12603;SDS011;6367;52.508;13.284;2023-09-19T14:26:46;2.20;;;1.83;;
12603;SDS011;6367;52.508;13.284;2023-09-19T14:29:12;4.40;;;1.90;;
12603;SDS011;6367;52.508;13.284;2023-09-19T14:31:39;3.37;;;1.70;;
12603;SDS011;6367;52.508;13.284;2023-09-19T14:34:06;4.23;;;2.03;;
12603;SDS011;6367;52.508;13.284;2023-09-19T14:36:32;2.53;;;1.60;;
12603;SDS011;6367;52.508;13.284;2023-09-19T14:39:00;2.20;;;2.00;;
12603;SDS011;6367;52.508;13.284;2023-09-19T14:41:27;2.47;;;1.60;;
12603;SDS011;6367;52.508;13.284;2023-09-19T14:43:53;2.20;;;1.50;;
12603;SDS011;6367;52.508;13.284;2023-09-19T14:46:20;2.90;;;2.20;;
12603;SDS011;6367;52.508;13.284;2023-09-19T14:48:46;2.97;;;1.90;;
12603;SDS011;6367;52.508;13.284;2023-09-19T14:51:12;4.53;;;2.00;;
12603;SDS011;6367;52.508;13.284;2023-09-19T14:53:39;5.30;;;2.47;;
12603;SDS011;6367;52.508;13.284;2023-09-19T14:56:07;4.33;;;2.23;;
12603;SDS011;6367;52.508;13.284;2023-09-19T14:58:34;3.13;;;1.50;;
12603;SDS011;6367;52.508;13.284;2023-09-19T15:01:04;2.20;;;1.90;;
12603;SDS011;6367;52.508;13.284;2023-09-19T15:03:35;2.00;;;1.80;;
12603;SDS011;6367;52.508;13.284;2023-09-19T15:06:02;2.80;;;1.90;;
12603;SDS011;6367;52.508;13.284;2023-09-19T15:08:35;2.33;;;1.80;;
12603;SDS011;6367;52.508;13.284;2023-09-19T15:11:09;2.20;;;2.00;;
12603;SDS011;6367;52.508;13.284;2023-09-19T15:13:35;4.80;;;2.10;;
12603;SDS011;6367;52.508;13.284;2023-09-19T15:16:02;7.10;;;2.50;;
12603;SDS011;6367;52.508;13.284;2023-09-19T15:18:34;5.10;;;2.10;;
12603;SDS011;6367;52.508;13.284;2023-09-19T15:21:05;2.90;;;2.37;;
12603;SDS011;6367;52.508;13.284;2023-09-19T15:23:32;4.90;;;3.07;;
12603;SDS011;6367;52.508;13.284;2023-09-19T15:26:02;5.30;;;2.77;;
12603;SDS011;6367;52.508;13.284;2023-09-19T15:28:32;3.90;;;1.83;;
12603;SDS011;6367;52.508;13.284;2023-09-19T15:30:59;2.43;;;1.83;;
12603;SDS011;6367;52.508;13.284;2023-09-19T15:33:31;2.70;;;2.17;;
12603;SDS011;6367;52.508;13.284;2023-09-19T15:36:10;3.07;;;2.13;;
12603;SDS011;6367;52.508;13.284;2023-09-19T15:38:56;3.57;;;2.27;;
12603;SDS011;6367;52.508;13.284;2023-09-19T15:41:25;3.93;;;2.27;;
12603;SDS011;6367;52.508;13.284;2023-09-19T15:44:02;4.93;;;2.73;;
12603;SDS011;6367;52.508;13.284;2023-09-19T15:46:32;5.47;;;3.10;;
12603;SDS011;6367;52.508;13.284;2023-09-19T15:49:00;2.90;;;1.93;;
12603;SDS011;6367;52.508;13.284;2023-09-19T15:51:26;3.13;;;2.10;;
12603;SDS011;6367;52.508;13.284;2023-09-19T15:53:52;3.87;;;2.43;;